Time;durP1;ratioP1;P1;durP2;ratioP2;P2;SDS_P1;SDS_P2;PMS_P1;PMS_P2;Temp;Humidity;BMP_temperature;BMP_pressure;BME280_temperature;BME280_humidity;BME280_pressure;Samples;Min_cycle;Max_cycle;Signal;HPM_P1;HPM_P2
2022/06/23 00:00:32;;;;;;;6.78;4.00;;;;;;;;;;5134034;27;20416;-36
2022/06/23 00:02:59;;;;;;;10.75;3.60;;;;;;;;;;5137971;27;20051;-35
2022/06/23 00:05:25;;;;;;;10.10;2.67;;;;;;;;;;5138363;27;20710;-37
2022/06/23 00:07:53;;;;;;;5.00;2.75;;;;;;;;;;5138331;27;20463;-34
2022/06/23 00:10:20;;;;;;;14.43;3.88;;;;;;;;;;5138738;27;20056;-34
2022/06/23 00:12:46;;;;;;;21.75;5.05;;;;;;;;;;5142485;27;20043;-34
2022/06/23 00:15:20;;;;;;;19.77;5.07;;;;;;;;;;5138260;27;20069;-44
2022/06/23 00:17:53;;;;;;;7.82;3.33;;;;;;;;;;5138531;27;20035;-42
2022/06/23 00:20:20;;;;;;;5.32;1.70;;;;;;;;;;5140679;27;20572;-45
2022/06/23 00:22:47;;;;;;;8.00;2.75;;;;;;;;;;5137964;27;20810;-42
2022/06/23 00:25:31;;;;;;;15.27;4.22;;;;;;;;;;5137051;27;20043;-44
2022/06/23 00:27:58;;;;;;;13.77;4.03;;;;;;;;;;5140844;27;20039;-44
2022/06/23 00:30:28;;;;;;;10.75;3.47;;;;;;;;;;5138926;27;20251;-42
2022/06/23 00:32:53;;;;;;;6.53;1.33;;;;;;;;;;5138859;27;20048;-44
2022/06/23 00:35:19;;;;;;;10.02;3.50;;;;;;;;;;5137992;27;20051;-45
2022/06/23 00:37:49;;;;;;;8.93;2.22;;;;;;;;;;5138216;27;20133;-47
2022/06/23 00:40:17;;;;;;;27.65;4.85;;;;;;;;;;5139247;27;20081;-45
2022/06/23 00:42:57;;;;;;;13.55;4.15;;;;;;;;;;5137155;27;20046;-47
2022/06/23 00:45:31;;;;;;;14.40;4.20;;;;;;;;;;5142372;27;20107;-43
2022/06/23 00:47:57;;;;;;;14.50;4.07;;;;;;;;;;5138677;27;20050;-43
2022/06/23 00:50:25;;;;;;;13.93;2.72;;;;;;;;;;5137728;27;20043;-43
2022/06/23 00:52:59;;;;;;;11.05;3.80;;;;;;;;;;5140524;27;20154;-47
2022/06/23 00:55:46;;;;;;;9.43;3.17;;;;;;;;;;5141648;27;20043;-47
2022/06/23 00:58:24;;;;;;;10.27;1.80;;;;;;;;;;5137391;27;20114;-48
2022/06/23 01:00:52;;;;;;;17.00;3.75;;;;;;;;;;5137261;27;20051;-45
2022/06/23 01:03:17;;;;;;;10.25;5.03;;;;;;;;;;5137361;27;20130;-40
2022/06/23 01:05:45;;;;;;;9.60;4.75;;;;;;;;;;5135206;27;20053;-41
2022/06/23 01:08:13;;;;;;;12.75;3.92;;;;;;;;;;5142642;27;20094;-40
2022/06/23 01:10:46;;;;;;;6.90;2.92;;;;;;;;;;5135910;27;20405;-40
2022/06/23 01:13:14;;;;;;;9.27;4.53;;;;;;;;;;5134973;27;20095;-40
2022/06/23 01:15:45;;;;;;;7.43;3.28;;;;;;;;;;5138022;27;20051;-42
2022/06/23 01:18:13;;;;;;;6.22;1.58;;;;;;;;;;5140433;27;20347;-39
2022/06/23 01:20:38;;;;;;;10.50;4.53;;;;;;;;;;5138427;27;20049;-41
2022/06/23 01:23:06;;;;;;;8.40;3.13;;;;;;;;;;5137625;27;20409;-42
2022/06/23 01:25:52;;;;;;;3.97;1.65;;;;;;;;;;5138530;27;20043;-38
2022/06/23 01:28:19;;;;;;;8.15;3.70;;;;;;;;;;5135962;27;20146;-40
2022/06/23 01:30:49;;;;;;;9.90;2.78;;;;;;;;;;5137115;27;20325;-39
2022/06/23 01:33:41;;;;;;;11.02;2.63;;;;;;;;;;5132443;27;20047;-41
2022/06/23 01:36:06;;;;;;;8.55;4.10;;;;;;;;;;5135050;27;20087;-39
2022/06/23 01:38:34;;;;;;;8.00;4.65;;;;;;;;;;5135268;27;20042;-39
2022/06/23 01:41:04;;;;;;;20.42;4.78;;;;;;;;;;5137394;27;20058;-41
2022/06/23 01:43:42;;;;;;;7.65;4.30;;;;;;;;;;5134419;27;20047;-42
2022/06/23 01:46:22;;;;;;;18.85;6.57;;;;;;;;;;5135938;27;20059;-41
2022/06/23 01:48:53;;;;;;;16.80;5.20;;;;;;;;;;5136922;27;20053;-40
2022/06/23 01:51:18;;;;;;;22.20;6.18;;;;;;;;;;5137748;27;20030;-39
2022/06/23 01:53:44;;;;;;;13.50;4.97;;;;;;;;;;5137915;27;20971;-41
2022/06/23 01:56:32;;;;;;;12.77;4.50;;;;;;;;;;5138597;27;20039;-41
2022/06/23 01:59:10;;;;;;;13.18;5.93;;;;;;;;;;5129408;27;20056;-39
2022/06/23 02:01:41;;;;;;;16.05;5.07;;;;;;;;;;5135278;27;20043;-42
2022/06/23 02:04:10;;;;;;;11.15;4.35;;;;;;;;;;5137121;27;20039;-38
2022/06/23 02:06:45;;;;;;;22.40;5.72;;;;;;;;;;5140650;27;20070;-38
2022/06/23 02:09:18;;;;;;;17.42;5.63;;;;;;;;;;5137391;27;20162;-40
2022/06/23 02:11:45;;;;;;;16.05;4.90;;;;;;;;;;5141119;27;20910;-39
2022/06/23 02:14:20;;;;;;;27.20;5.40;;;;;;;;;;5135011;27;20102;-38
2022/06/23 02:16:48;;;;;;;22.85;7.30;;;;;;;;;;5136769;27;20071;-47
2022/06/23 02:19:20;;;;;;;8.90;4.30;;;;;;;;;;5135561;27;20438;-41
2022/06/23 02:21:50;;;;;;;12.10;4.88;;;;;;;;;;5133802;27;20521;-38
2022/06/23 02:24:34;;;;;;;8.02;4.70;;;;;;;;;;5134809;27;20446;-42
2022/06/23 02:27:09;;;;;;;7.57;3.30;;;;;;;;;;5136270;27;20099;-41
2022/06/23 02:29:46;;;;;;;10.82;3.88;;;;;;;;;;5134839;27;20051;-38
2022/06/23 02:32:15;;;;;;;6.40;4.72;;;;;;;;;;5132935;27;20047;-41
2022/06/23 02:35:03;;;;;;;14.43;4.65;;;;;;;;;;5135148;27;20095;-39
2022/06/23 02:37:48;;;;;;;7.50;3.85;;;;;;;;;;5124665;27;20057;-41
2022/06/23 02:40:22;;;;;;;8.93;2.67;;;;;;;;;;5137108;27;20244;-39
2022/06/23 02:42:54;;;;;;;9.57;2.63;;;;;;;;;;5136647;27;20505;-39
2022/06/23 02:45:29;;;;;;;10.75;3.80;;;;;;;;;;5134459;27;20444;-41
2022/06/23 02:48:03;;;;;;;9.38;3.75;;;;;;;;;;5139298;27;20588;-39
2022/06/23 02:50:47;;;;;;;7.97;2.35;;;;;;;;;;5138260;27;20062;-44
2022/06/23 02:53:22;;;;;;;7.57;2.55;;;;;;;;;;5137008;27;20065;-39
2022/06/23 02:55:47;;;;;;;18.92;3.55;;;;;;;;;;5136160;27;20038;-39
2022/06/23 02:58:17;;;;;;;7.03;2.88;;;;;;;;;;5134238;27;20035;-40
2022/06/23 03:00:42;;;;;;;12.30;2.40;;;;;;;;;;5130963;27;20033;-41
2022/06/23 03:03:10;;;;;;;9.38;2.22;;;;;;;;;;5133185;27;20051;-39
2022/06/23 03:05:42;;;;;;;10.50;3.10;;;;;;;;;;5138189;27;20038;-39
2022/06/23 03:08:16;;;;;;;11.50;3.22;;;;;;;;;;5136702;27;20043;-41
2022/06/23 03:10:46;;;;;;;7.95;3.22;;;;;;;;;;5134094;27;20057;-38
2022/06/23 03:13:16;;;;;;;9.98;3.20;;;;;;;;;;5136307;27;20091;-44
2022/06/23 03:15:47;;;;;;;13.00;3.10;;;;;;;;;;5134128;27;20047;-40
2022/06/23 03:18:25;;;;;;;11.18;3.50;;;;;;;;;;5140084;27;20111;-40
2022/06/23 03:20:59;;;;;;;9.52;4.38;;;;;;;;;;5139202;27;20142;-38
2022/06/23 03:23:28;;;;;;;5.47;3.33;;;;;;;;;;5136013;27;20039;-40
2022/06/23 03:26:05;;;;;;;15.45;2.88;;;;;;;;;;5137832;27;20042;-39
2022/06/23 03:28:39;;;;;;;7.47;2.90;;;;;;;;;;5138798;27;20069;-39
2022/06/23 03:31:05;;;;;;;9.82;2.92;;;;;;;;;;5137329;27;20035;-39
2022/06/23 03:33:36;;;;;;;7.75;2.50;;;;;;;;;;5140561;27;20055;-40
2022/06/23 03:36:11;;;;;;;9.98;2.53;;;;;;;;;;5138755;27;20125;-39
2022/06/23 03:41:36;;;;;;;8.65;3.38;;;;;;;;;;5139316;27;20110;-39
2022/06/23 03:44:17;;;;;;;9.68;2.78;;;;;;;;;;5142358;27;20050;-39
2022/06/23 03:46:48;;;;;;;3.45;2.08;;;;;;;;;;5138574;27;20050;-39
2022/06/23 03:49:20;;;;;;;20.67;3.65;;;;;;;;;;5140988;27;20053;-40
2022/06/23 03:51:54;;;;;;;3.88;1.48;;;;;;;;;;5143575;27;20047;-40
2022/06/23 03:54:22;;;;;;;17.20;3.47;;;;;;;;;;5143962;27;20165;-38
2022/06/23 03:56:59;;;;;;;8.63;2.38;;;;;;;;;;5141222;27;20607;-39
2022/06/23 03:59:43;;;;;;;10.98;3.92;;;;;;;;;;5141857;27;20126;-41
2022/06/23 04:02:14;;;;;;;2.70;1.65;;;;;;;;;;5140930;27;20042;-41
2022/06/23 04:04:45;;;;;;;11.13;3.70;;;;;;;;;;5144938;27;20049;-41
2022/06/23 04:07:28;;;;;;;15.45;2.85;;;;;;;;;;5144037;27;20050;-43
2022/06/23 04:09:59;;;;;;;6.05;2.53;;;;;;;;;;5139828;27;20055;-39
2022/06/23 04:12:25;;;;;;;14.73;3.22;;;;;;;;;;5142754;27;20193;-41
2022/06/23 04:14:59;;;;;;;5.55;2.72;;;;;;;;;;5141200;27;20561;-40
2022/06/23 04:17:26;;;;;;;10.55;3.15;;;;;;;;;;5140187;27;20038;-39
2022/06/23 04:19:57;;;;;;;6.97;4.85;;;;;;;;;;5140003;27;20038;-39
2022/06/23 04:22:28;;;;;;;6.43;2.08;;;;;;;;;;5141278;27;20043;-41
2022/06/23 04:24:55;;;;;;;6.90;2.72;;;;;;;;;;5140669;27;20489;-40
2022/06/23 04:27:29;;;;;;;5.47;2.67;;;;;;;;;;5140863;27;20058;-42
2022/06/23 04:29:57;;;;;;;11.57;3.20;;;;;;;;;;5144553;27;20406;-40
2022/06/23 04:32:25;;;;;;;10.15;3.33;;;;;;;;;;5142837;27;20569;-41
2022/06/23 04:34:59;;;;;;;11.07;3.92;;;;;;;;;;5141080;27;20034;-39
2022/06/23 04:37:31;;;;;;;15.40;2.78;;;;;;;;;;5140545;27;20046;-41
2022/06/23 04:40:16;;;;;;;6.40;2.38;;;;;;;;;;5141280;27;20042;-39
2022/06/23 04:42:47;;;;;;;10.40;3.85;;;;;;;;;;5143212;27;20042;-41
2022/06/23 04:45:29;;;;;;;12.00;4.05;;;;;;;;;;5139625;27;20050;-44
2022/06/23 04:47:56;;;;;;;7.25;2.72;;;;;;;;;;5137633;27;20627;-39
2022/06/23 04:50:48;;;;;;;13.35;2.58;;;;;;;;;;5140957;27;20067;-38
2022/06/23 04:53:23;;;;;;;7.20;2.72;;;;;;;;;;5135577;27;20047;-38
2022/06/23 04:55:58;;;;;;;8.60;3.33;;;;;;;;;;5136024;27;20491;-41
2022/06/23 04:58:24;;;;;;;8.80;3.55;;;;;;;;;;5143011;27;20051;-42
2022/06/23 05:00:50;;;;;;;20.65;2.42;;;;;;;;;;5140155;27;20056;-39
2022/06/23 05:03:23;;;;;;;6.07;2.83;;;;;;;;;;5140217;27;20125;-43
2022/06/23 05:06:00;;;;;;;14.55;2.28;;;;;;;;;;5140819;27;20046;-39
2022/06/23 05:08:27;;;;;;;17.33;3.83;;;;;;;;;;5138397;27;20042;-39
2022/06/23 05:10:58;;;;;;;6.38;2.80;;;;;;;;;;5138636;27;20091;-39
2022/06/23 05:13:23;;;;;;;;;;;;;;;;;;5139518;27;20053;-38
2022/06/23 05:15:55;;;;;;;13.32;2.85;;;;;;;;;;5144167;27;20013;-39
2022/06/23 05:18:23;;;;;;;7.65;2.78;;;;;;;;;;5139594;27;20144;-39
2022/06/23 05:21:08;;;;;;;12.57;4.07;;;;;;;;;;5141229;27;20057;-39
2022/06/23 05:23:39;;;;;;;7.18;2.65;;;;;;;;;;5140270;27;20071;-45
2022/06/23 05:26:25;;;;;;;6.78;3.40;;;;;;;;;;5141515;27;20055;-39
2022/06/23 05:28:52;;;;;;;13.77;3.63;;;;;;;;;;5139891;27;20506;-39
2022/06/23 05:31:21;;;;;;;9.32;3.50;;;;;;;;;;5141329;27;20405;-40
2022/06/23 05:33:48;;;;;;;7.18;4.10;;;;;;;;;;5141886;27;20047;-39
2022/06/23 05:36:17;;;;;;;7.25;4.55;;;;;;;;;;5142952;27;20046;-39
2022/06/23 05:38:51;;;;;;;12.60;4.78;;;;;;;;;;5139933;27;20051;-40
2022/06/23 05:41:18;;;;;;;9.02;3.22;;;;;;;;;;5138705;27;20062;-44
2022/06/23 05:43:46;;;;;;;12.55;4.03;;;;;;;;;;5139793;27;20074;-41
2022/06/23 05:46:16;;;;;;;6.60;3.42;;;;;;;;;;5139345;27;20031;-40
2022/06/23 05:48:42;;;;;;;18.45;4.10;;;;;;;;;;5141083;27;20558;-39
2022/06/23 05:51:10;;;;;;;12.55;6.22;;;;;;;;;;5138355;27;20043;-43
2022/06/23 05:53:41;;;;;;;6.43;3.58;;;;;;;;;;5139601;27;20045;-42
2022/06/23 05:56:20;;;;;;;17.60;5.05;;;;;;;;;;5141200;27;20549;-39
2022/06/23 05:59:00;;;;;;;21.20;5.47;;;;;;;;;;5137013;27;20071;-39
2022/06/23 06:01:28;;;;;;;11.75;2.95;;;;;;;;;;5141347;27;20043;-38
2022/06/23 06:04:06;;;;;;;19.27;4.72;;;;;;;;;;5143579;27;20141;-39
2022/06/23 06:06:32;;;;;;;12.30;3.35;;;;;;;;;;5139870;27;20039;-40
2022/06/23 06:11:51;;;;;;;15.18;6.45;;;;;;;;;;5140127;27;20058;-39
2022/06/23 06:14:20;;;;;;;11.63;3.63;;;;;;;;;;5142052;27;20035;-41
2022/06/23 06:16:45;;;;;;;16.98;3.75;;;;;;;;;;5143112;27;20050;-39
2022/06/23 06:19:14;;;;;;;9.68;5.03;;;;;;;;;;5143282;27;20063;-40
2022/06/23 06:21:39;;;;;;;15.20;4.35;;;;;;;;;;5140001;27;20508;-44
2022/06/23 06:24:19;;;;;;;11.85;5.00;;;;;;;;;;5141812;27;20030;-40
2022/06/23 06:26:47;;;;;;;14.55;5.53;;;;;;;;;;5136259;27;20077;-40
2022/06/23 06:29:14;;;;;;;11.52;5.55;;;;;;;;;;5137122;27;20442;-40
2022/06/23 06:31:43;;;;;;;7.72;3.63;;;;;;;;;;5138157;27;20089;-39
2022/06/23 06:34:08;;;;;;;10.35;2.85;;;;;;;;;;5138135;27;20553;-40
2022/06/23 06:36:44;;;;;;;4.80;2.80;;;;;;;;;;5140854;27;20045;-40
2022/06/23 06:39:12;;;;;;;15.75;4.55;;;;;;;;;;5137029;27;20079;-39
2022/06/23 06:41:39;;;;;;;10.40;4.68;;;;;;;;;;5136019;27;20562;-39
2022/06/23 06:44:04;;;;;;;18.33;7.28;;;;;;;;;;5137831;27;20087;-41
2022/06/23 06:46:30;;;;;;;14.18;5.88;;;;;;;;;;5138974;27;20050;-41
2022/06/23 06:48:56;;;;;;;10.52;3.95;;;;;;;;;;5139200;27;20449;-39
2022/06/23 06:51:23;;;;;;;8.48;4.40;;;;;;;;;;5137695;27;20042;-39
2022/06/23 06:53:57;;;;;;;17.75;5.38;;;;;;;;;;5140696;27;20534;-32
2022/06/23 06:56:29;;;;;;;17.20;4.13;;;;;;;;;;5133350;27;20042;-33
2022/06/23 06:59:01;;;;;;;15.77;4.07;;;;;;;;;;5137243;27;20057;-33
2022/06/23 07:01:27;;;;;;;13.93;4.85;;;;;;;;;;5136810;27;20043;-33
2022/06/23 07:03:54;;;;;;;20.02;4.55;;;;;;;;;;5137811;27;20058;-34
2022/06/23 07:06:39;;;;;;;10.43;4.30;;;;;;;;;;5134456;27;20528;-34
2022/06/23 07:09:04;;;;;;;7.40;3.83;;;;;;;;;;5138891;27;20496;-33
2022/06/23 07:11:33;;;;;;;28.65;7.68;;;;;;;;;;5136453;27;20096;-33
2022/06/23 07:14:02;;;;;;;10.60;3.63;;;;;;;;;;5144823;27;20560;-33
2022/06/23 07:16:27;;;;;;;9.13;4.53;;;;;;;;;;5141645;27;20085;-33
2022/06/23 07:18:56;;;;;;;10.57;3.95;;;;;;;;;;5140494;27;20066;-33
2022/06/23 07:21:24;;;;;;;25.90;6.38;;;;;;;;;;5140743;27;20047;-33
2022/06/23 07:23:58;;;;;;;6.82;1.98;;;;;;;;;;5141502;27;20077;-33
2022/06/23 07:26:30;;;;;;;15.70;4.72;;;;;;;;;;5141421;27;20099;-33
2022/06/23 07:28:58;;;;;;;16.13;5.85;;;;;;;;;;5140193;27;20169;-33
2022/06/23 07:31:50;;;;;;;22.85;4.30;;;;;;;;;;5124264;27;20484;-33
2022/06/23 07:34:16;;;;;;;9.43;4.68;;;;;;;;;;5107381;27;20130;-34
2022/06/23 07:36:52;;;;;;;17.27;5.85;;;;;;;;;;5144169;27;20616;-33
2022/06/23 07:39:20;;;;;;;11.07;4.78;;;;;;;;;;5142202;27;20061;-31
2022/06/23 07:41:45;;;;;;;13.65;5.43;;;;;;;;;;5140861;27;20107;-32
2022/06/23 07:44:20;;;;;;;9.00;4.63;;;;;;;;;;5140539;27;20055;-33
2022/06/23 07:46:46;;;;;;;9.77;3.80;;;;;;;;;;5140312;27;20107;-33
2022/06/23 07:49:11;;;;;;;7.47;3.88;;;;;;;;;;5145633;27;20702;-33
2022/06/23 07:51:36;;;;;;;15.65;4.88;;;;;;;;;;5145094;27;20030;-32
2022/06/23 07:54:03;;;;;;;15.15;5.28;;;;;;;;;;5137892;27;20214;-32
2022/06/23 07:56:30;;;;;;;12.13;3.67;;;;;;;;;;5142605;27;20070;-33
2022/06/23 07:59:02;;;;;;;29.95;5.93;;;;;;;;;;5141243;27;20053;-33
2022/06/23 08:01:30;;;;;;;8.90;4.13;;;;;;;;;;5140628;27;20093;-32
2022/06/23 08:04:24;;;;;;;14.48;4.57;;;;;;;;;;5142100;27;20043;-33
2022/06/23 08:06:50;;;;;;;12.73;3.85;;;;;;;;;;5121420;27;20564;-33
2022/06/23 08:09:30;;;;;;;8.75;3.95;;;;;;;;;;5139519;27;20095;-33
2022/06/23 08:16:49;;;;;;;7.30;3.63;;;;;;;;;;5145146;27;20103;-33
2022/06/23 08:17:37;;;;;;;8.20;3.03;;;;;;;;;;5140994;27;20042;-33
2022/06/23 08:20:03;;;;;;;14.68;4.85;;;;;;;;;;5144246;27;20054;-33
2022/06/23 08:22:31;;;;;;;5.15;3.58;;;;;;;;;;5142883;27;20115;-33
2022/06/23 08:24:59;;;;;;;17.30;7.80;;;;;;;;;;5137810;27;20046;-33
2022/06/23 08:27:28;;;;;;;14.65;3.58;;;;;;;;;;5139618;27;20084;-33
2022/06/23 08:30:14;;;;;;;10.52;4.68;;;;;;;;;;5143256;27;20058;-32
2022/06/23 08:32:43;;;;;;;8.75;4.82;;;;;;;;;;5135330;27;20631;-33
2022/06/23 08:35:28;;;;;;;13.30;4.18;;;;;;;;;;5141420;27;20555;-32
2022/06/23 08:37:58;;;;;;;7.38;3.08;;;;;;;;;;5126478;27;20047;-33
2022/06/23 08:40:42;;;;;;;22.65;4.80;;;;;;;;;;5142020;27;20410;-33
2022/06/23 08:43:11;;;;;;;18.67;6.22;;;;;;;;;;5140299;27;20047;-33
2022/06/23 08:45:43;;;;;;;14.27;5.05;;;;;;;;;;5142594;27;20046;-33
2022/06/23 08:48:31;;;;;;;32.70;5.22;;;;;;;;;;5141346;27;20091;-33
2022/06/23 08:51:03;;;;;;;7.10;3.75;;;;;;;;;;5128291;27;20085;-33
2022/06/23 08:53:34;;;;;;;16.98;4.22;;;;;;;;;;5140468;27;20142;-32
2022/06/23 08:56:20;;;;;;;10.48;3.80;;;;;;;;;;5140521;27;20070;-33
2022/06/23 08:59:02;;;;;;;14.88;4.95;;;;;;;;;;5130182;27;20096;-33
2022/06/23 09:01:47;;;;;;;14.65;5.90;;;;;;;;;;5140988;27;20054;-33
2022/06/23 09:04:22;;;;;;;13.15;4.82;;;;;;;;;;5138945;27;20061;-33
2022/06/23 09:07:06;;;;;;;10.68;3.92;;;;;;;;;;5140248;27;20046;-33
2022/06/23 09:09:36;;;;;;;12.82;3.42;;;;;;;;;;5140701;27;20575;-33
2022/06/23 09:12:04;;;;;;;7.60;3.13;;;;;;;;;;5142716;27;20043;-33
2022/06/23 09:14:29;;;;;;;10.50;4.35;;;;;;;;;;5135641;27;20051;-34
2022/06/23 09:17:10;;;;;;;6.82;2.85;;;;;;;;;;5141151;27;20043;-35
2022/06/23 09:19:40;;;;;;;10.43;3.42;;;;;;;;;;5138148;27;20046;-34
2022/06/23 09:22:24;;;;;;;7.40;2.63;;;;;;;;;;5139568;27;20071;-34
2022/06/23 09:24:49;;;;;;;10.30;4.25;;;;;;;;;;5136746;27;20066;-31
2022/06/23 09:27:15;;;;;;;13.77;4.90;;;;;;;;;;5140400;27;20027;-32
2022/06/23 09:29:45;;;;;;;17.45;5.18;;;;;;;;;;5139601;27;20577;-32
2022/06/23 09:32:12;;;;;;;;;;;;;;;;;;5140946;27;20039;-32
2022/06/23 09:34:37;;;;;;;8.18;3.55;;;;;;;;;;5133666;27;19911;-33
2022/06/23 09:37:05;;;;;;;3.13;1.95;;;;;;;;;;5142623;27;20405;-33
2022/06/23 09:39:40;;;;;;;10.43;4.38;;;;;;;;;;5140830;27;20406;-33
2022/06/23 09:42:11;;;;;;;14.63;4.28;;;;;;;;;;5136401;27;20039;-33
2022/06/23 09:44:44;;;;;;;8.23;4.78;;;;;;;;;;5142187;27;20081;-33
2022/06/23 09:47:09;;;;;;;9.05;4.25;;;;;;;;;;5138934;27;20055;-33
2022/06/23 09:49:35;;;;;;;14.23;5.15;;;;;;;;;;5137331;27;20046;-33
2022/06/23 09:52:00;;;;;;;14.48;2.88;;;;;;;;;;5138550;27;20573;-46
2022/06/23 09:54:25;;;;;;;12.35;5.03;;;;;;;;;;5137528;27;20134;-46
2022/06/23 09:57:09;;;;;;;7.40;2.15;;;;;;;;;;5138827;27;20046;-42
2022/06/23 09:59:50;;;;;;;12.35;4.00;;;;;;;;;;5135922;27;20844;-42
2022/06/23 10:02:34;;;;;;;16.58;4.63;;;;;;;;;;5139747;27;20130;-49
2022/06/23 10:05:14;;;;;;;14.68;3.40;;;;;;;;;;5135710;27;20065;-45
2022/06/23 10:07:52;;;;;;;14.40;3.78;;;;;;;;;;5138323;27;20117;-47
2022/06/23 10:10:36;;;;;;;7.65;3.58;;;;;;;;;;5138239;27;20039;-44
2022/06/23 10:13:27;;;;;;;12.38;4.45;;;;;;;;;;5140188;27;20039;-44
2022/06/23 10:16:00;;;;;;;10.88;3.20;;;;;;;;;;5101071;27;20673;-46
2022/06/23 10:18:28;;;;;;;11.15;4.50;;;;;;;;;;5140339;27;20194;-45
2022/06/23 10:21:03;;;;;;;9.40;3.08;;;;;;;;;;5136621;27;20430;-49
2022/06/23 10:23:40;;;;;;;10.13;4.05;;;;;;;;;;5140700;27;20070;-44
2022/06/23 10:26:15;;;;;;;10.98;3.75;;;;;;;;;;5137966;27;20034;-45
2022/06/23 10:28:51;;;;;;;19.52;3.65;;;;;;;;;;5141381;27;20050;-47
2022/06/23 10:31:19;;;;;;;12.18;3.65;;;;;;;;;;5137564;27;20086;-42
2022/06/23 10:33:55;;;;;;;8.82;3.83;;;;;;;;;;5135879;27;20027;-49
2022/06/23 10:36:27;;;;;;;10.73;4.88;;;;;;;;;;5140279;27;20050;-45
2022/06/23 10:39:11;;;;;;;19.80;5.43;;;;;;;;;;5140053;27;20059;-49
2022/06/23 10:41:55;;;;;;;14.60;4.35;;;;;;;;;;5140072;27;20482;-46
2022/06/23 10:44:20;;;;;;;7.20;3.75;;;;;;;;;;5139887;27;20050;-43
2022/06/23 10:46:53;;;;;;;9.48;4.55;;;;;;;;;;5141163;27;20051;-46
2022/06/23 10:49:27;;;;;;;10.88;2.67;;;;;;;;;;5138440;27;20534;-46
2022/06/23 10:52:12;;;;;;;8.07;4.53;;;;;;;;;;5137274;27;20068;-47
2022/06/23 10:54:55;;;;;;;8.45;3.55;;;;;;;;;;5140874;27;20034;-44
2022/06/23 10:57:27;;;;;;;16.20;4.07;;;;;;;;;;5139552;27;20050;-47
2022/06/23 11:00:05;;;;;;;7.82;4.35;;;;;;;;;;5137738;27;20047;-47
2022/06/23 11:02:49;;;;;;;11.68;2.20;;;;;;;;;;5140113;27;20046;-46
2022/06/23 11:05:32;;;;;;;7.03;3.03;;;;;;;;;;5137340;27;20149;-43
2022/06/23 11:08:16;;;;;;;9.32;4.22;;;;;;;;;;5134278;27;20036;-45
2022/06/23 11:10:57;;;;;;;11.88;3.33;;;;;;;;;;5136715;27;20047;-43
2022/06/23 11:13:35;;;;;;;11.50;3.30;;;;;;;;;;5140245;27;20108;-43
2022/06/23 11:16:03;;;;;;;14.50;2.53;;;;;;;;;;5137243;27;20085;-46
2022/06/23 11:18:35;;;;;;;9.93;3.13;;;;;;;;;;5135126;27;20057;-44
2022/06/23 11:21:15;;;;;;;4.43;2.72;;;;;;;;;;5137050;27;20050;-45
2022/06/23 11:23:51;;;;;;;6.80;3.20;;;;;;;;;;5139944;27;20106;-43
2022/06/23 11:26:52;;;;;;;7.30;2.72;;;;;;;;;;5139157;27;20054;-44
2022/06/23 11:29:36;;;;;;;8.48;2.67;;;;;;;;;;5070731;28;20055;-45
2022/06/23 11:32:20;;;;;;;6.35;2.47;;;;;;;;;;5130066;27;20039;-45
2022/06/23 11:34:45;;;;;;;7.30;2.25;;;;;;;;;;5141256;27;20055;-43
2022/06/23 11:37:10;;;;;;;15.10;3.17;;;;;;;;;;5141019;27;20093;-47
2022/06/23 11:39:51;;;;;;;9.43;2.97;;;;;;;;;;5138676;27;20114;-45
2022/06/23 11:42:25;;;;;;;7.72;2.67;;;;;;;;;;5138028;27;20058;-44
2022/06/23 11:44:50;;;;;;;5.55;2.63;;;;;;;;;;5139629;27;20042;-42
2022/06/23 11:47:21;;;;;;;10.02;3.95;;;;;;;;;;5140931;27;20057;-47
2022/06/23 11:50:06;;;;;;;8.18;2.20;;;;;;;;;;5138876;27;20042;-44
2022/06/23 11:52:40;;;;;;;17.23;5.65;;;;;;;;;;5138400;27;20031;-45
2022/06/23 11:55:12;;;;;;;5.75;1.88;;;;;;;;;;5137624;27;20174;-44
2022/06/23 11:57:37;;;;;;;14.30;4.43;;;;;;;;;;5139336;27;20039;-45
2022/06/23 12:00:02;;;;;;;8.00;3.85;;;;;;;;;;5141994;27;20398;-45
2022/06/23 12:02:28;;;;;;;12.70;3.55;;;;;;;;;;5142513;27;20541;-44
2022/06/23 12:05:02;;;;;;;10.07;3.47;;;;;;;;;;5141028;27;20059;-48
2022/06/23 12:07:51;;;;;;;8.60;3.70;;;;;;;;;;5141517;27;20178;-44
2022/06/23 12:10:25;;;;;;;3.35;1.65;;;;;;;;;;5139323;27;20050;-43
2022/06/23 12:12:51;;;;;;;4.25;2.53;;;;;;;;;;5138858;27;20074;-44
2022/06/23 12:15:20;;;;;;;16.60;3.80;;;;;;;;;;5141718;27;20107;-45
2022/06/23 12:18:04;;;;;;;8.77;3.58;;;;;;;;;;5142657;27;20031;-45
2022/06/23 12:20:48;;;;;;;7.50;3.95;;;;;;;;;;5138721;27;20030;-45
2022/06/23 12:23:30;;;;;;;18.92;2.13;;;;;;;;;;5142598;27;20441;-47
2022/06/23 12:26:13;;;;;;;8.82;3.45;;;;;;;;;;5145031;27;20061;-43
2022/06/23 12:28:39;;;;;;;5.43;2.75;;;;;;;;;;5143046;27;20034;-45
2022/06/23 12:31:13;;;;;;;5.72;1.83;;;;;;;;;;5139228;27;20041;-46
2022/06/23 12:33:48;;;;;;;6.90;2.25;;;;;;;;;;5137830;27;20120;-45
2022/06/23 12:36:17;;;;;;;9.43;3.47;;;;;;;;;;5142402;27;20122;-50
2022/06/23 12:38:49;;;;;;;4.00;1.53;;;;;;;;;;5140361;27;20489;-47
2022/06/23 12:41:21;;;;;;;3.80;1.20;;;;;;;;;;5141824;27;20047;-48
2022/06/23 12:43:56;;;;;;;12.18;2.65;;;;;;;;;;5140675;27;20042;-44
2022/06/23 12:46:40;;;;;;;3.33;1.50;;;;;;;;;;5144048;27;20411;-43
2022/06/23 12:49:08;;;;;;;6.25;0.70;;;;;;;;;;5138855;27;20047;-43
2022/06/23 12:51:52;;;;;;;5.75;1.85;;;;;;;;;;5139237;27;20070;-44
2022/06/23 12:54:20;;;;;;;6.45;1.73;;;;;;;;;;5135452;27;20058;-43
2022/06/23 12:56:46;;;;;;;4.80;1.35;;;;;;;;;;5140157;27;20057;-43
2022/06/23 12:59:11;;;;;;;2.67;1.33;;;;;;;;;;5139408;27;20122;-45
2022/06/23 13:01:44;;;;;;;6.53;1.80;;;;;;;;;;5139488;27;20322;-44
2022/06/23 13:04:13;;;;;;;6.80;1.38;;;;;;;;;;5140378;27;20138;-43
2022/06/23 13:07:14;;;;;;;9.02;2.75;;;;;;;;;;5140984;27;20043;-47
2022/06/23 13:09:58;;;;;;;7.28;1.25;;;;;;;;;;5043047;28;20764;-46
2022/06/23 13:12:24;;;;;;;3.90;1.02;;;;;;;;;;5130233;27;20055;-48
2022/06/23 13:14:53;;;;;;;4.05;0.70;;;;;;;;;;5137522;27;20052;-43
2022/06/23 13:17:22;;;;;;;2.83;0.90;;;;;;;;;;5141493;27;20188;-43
2022/06/23 13:20:08;;;;;;;4.27;1.97;;;;;;;;;;5119983;27;20046;-49
2022/06/23 13:22:43;;;;;;;2.15;1.35;;;;;;;;;;5137565;27;20283;-44
2022/06/23 13:25:12;;;;;;;10.18;1.13;;;;;;;;;;5142846;27;20081;-44
2022/06/23 13:27:45;;;;;;;6.57;1.92;;;;;;;;;;5138774;27;20083;-45
2022/06/23 13:30:14;;;;;;;1.17;0.80;;;;;;;;;;5140619;27;20478;-48
2022/06/23 13:32:50;;;;;;;5.97;1.00;;;;;;;;;;5139534;27;20042;-44
2022/06/23 13:35:21;;;;;;;2.15;1.65;;;;;;;;;;5141725;27;20183;-43
2022/06/23 13:38:05;;;;;;;3.88;1.58;;;;;;;;;;5140288;27;20493;-49
2022/06/23 13:40:46;;;;;;;1.13;0.80;;;;;;;;;;5139745;27;20046;-46
2022/06/23 13:43:11;;;;;;;4.65;2.28;;;;;;;;;;5140290;27;20125;-45
2022/06/23 13:45:40;;;;;;;2.92;1.23;;;;;;;;;;5138484;27;20188;-53
2022/06/23 13:48:12;;;;;;;6.00;1.30;;;;;;;;;;5138490;27;20059;-47
2022/06/23 13:50:47;;;;;;;7.35;1.85;;;;;;;;;;5137983;27;20829;-49
2022/06/23 13:53:16;;;;;;;3.40;1.33;;;;;;;;;;5139645;27;20556;-50
2022/06/23 13:55:41;;;;;;;3.75;1.98;;;;;;;;;;5139946;27;20066;-48
2022/06/23 13:58:11;;;;;;;5.40;2.22;;;;;;;;;;5136685;27;20557;-49
2022/06/23 14:00:40;;;;;;;3.83;0.90;;;;;;;;;;5140606;27;20655;-42
2022/06/23 14:03:05;;;;;;;2.67;1.38;;;;;;;;;;5139010;27;20050;-45
2022/06/23 14:05:38;;;;;;;3.30;2.25;;;;;;;;;;5139202;27;20053;-44
2022/06/23 14:08:04;;;;;;;3.65;1.25;;;;;;;;;;5139628;27;20107;-43
2022/06/23 14:10:32;;;;;;;4.70;1.63;;;;;;;;;;5139588;27;20059;-42
2022/06/23 14:13:03;;;;;;;6.22;2.17;;;;;;;;;;5140865;27;20042;-47
2022/06/23 14:15:42;;;;;;;8.82;1.92;;;;;;;;;;5140558;27;20130;-48
2022/06/23 14:18:22;;;;;;;2.83;1.65;;;;;;;;;;5141736;27;20046;-47
2022/06/23 14:20:54;;;;;;;5.30;1.60;;;;;;;;;;5136361;27;20174;-47
2022/06/23 14:23:24;;;;;;;7.80;2.42;;;;;;;;;;5136621;27;20046;-50
2022/06/23 14:26:09;;;;;;;1.95;1.35;;;;;;;;;;5139332;27;20088;-46
2022/06/23 14:28:48;;;;;;;1.75;1.05;;;;;;;;;;5134757;27;20070;-44
2022/06/23 14:31:19;;;;;;;3.70;1.55;;;;;;;;;;5137971;27;20061;-45
2022/06/23 14:34:07;;;;;;;4.40;1.42;;;;;;;;;;5138085;27;20402;-44
2022/06/23 14:36:41;;;;;;;7.60;1.25;;;;;;;;;;5139824;27;20152;-44
2022/06/23 14:39:15;;;;;;;9.77;1.58;;;;;;;;;;5139465;27;20038;-44
2022/06/23 14:41:59;;;;;;;3.78;1.73;;;;;;;;;;5140038;27;20051;-48
2022/06/23 14:44:43;;;;;;;3.83;1.23;;;;;;;;;;5136013;27;20047;-46
2022/06/23 14:47:09;;;;;;;4.65;1.33;;;;;;;;;;5135983;27;20054;-44
2022/06/23 14:49:34;;;;;;;8.68;1.55;;;;;;;;;;5134824;27;20035;-44
2022/06/23 14:52:03;;;;;;;3.58;1.48;;;;;;;;;;5140995;27;20050;-47
2022/06/23 14:54:32;;;;;;;14.25;2.03;;;;;;;;;;5141418;27;20103;-45
2022/06/23 14:57:00;;;;;;;2.67;1.20;;;;;;;;;;5137452;27;20047;-44
2022/06/23 14:59:36;;;;;;;4.82;1.55;;;;;;;;;;5134396;27;20474;-47
2022/06/23 15:02:17;;;;;;;12.85;1.42;;;;;;;;;;5137742;27;20054;-44
2022/06/23 15:04:52;;;;;;;2.13;0.88;;;;;;;;;;5139911;27;20050;-46
2022/06/23 15:07:37;;;;;;;7.20;0.95;;;;;;;;;;5137420;27;20121;-45
2022/06/23 15:10:09;;;;;;;1.60;0.52;;;;;;;;;;5139326;27;20154;-44
2022/06/23 15:12:34;;;;;;;12.10;2.30;;;;;;;;;;5138665;27;20141;-45
2022/06/23 15:15:18;;;;;;;3.70;2.10;;;;;;;;;;5139070;27;20039;-43
2022/06/23 15:17:59;;;;;;;3.53;1.52;;;;;;;;;;5140503;27;20051;-45
2022/06/23 15:20:37;;;;;;;6.28;1.83;;;;;;;;;;5140938;27;20039;-44